Dabolim International Airport

Airport
ICAO code: 
VOGO
IATA Code: 
GOI
Summary
ICAO Region: 
APAC
Territory: 
Location: 
Dabolim, Mormugão, Goa,
Serving: 
Goa
Elevation: 
183 ft
Coordinates: 
Aerial View: 
15° 22' 50.002" N, 73° 49' 59.002" E
Metar
Observation
VOGO 190700Z 02005KT 6000 NSC 32/15 Q1013 NOSIG
Station
Goa International Airport
Date/Time
2022-01-19 07:00:00
Wind direction
20°
Wind speed
05 kts
Lowest cloud amount
nil significant cloud
Temperature
32°C
Dew point
15°C
Humidity
35%
QNH
1013 hPa
Weather condition
n/a

International airport serving the state of Goa, India.

Climatology

Tropical Savanna climate (Köppen climate classification Aw)

Airport map: 
Aerial View: 

Accidents and Serious Incidents at or in the vicinity of VOGO

SKYbrary Partners:

Safety knowledge contributed by: